sensor_id;sensor_type;location;lat;lon;timestamp;P1;durP1;ratioP1;P2;durP2;ratioP2
9176;SDS011;4623;54.310;10.112;2022-12-07T00:01:11;7.10;;;6.37;;
9176;SDS011;4623;54.310;10.112;2022-12-07T00:03:45;8.07;;;7.27;;
9176;SDS011;4623;54.310;10.112;2022-12-07T00:06:12;7.73;;;6.93;;
9176;SDS011;4623;54.310;10.112;2022-12-07T00:08:40;7.77;;;7.07;;
9176;SDS011;4623;54.310;10.112;2022-12-07T00:13:33;7.80;;;7.10;;
9176;SDS011;4623;54.310;10.112;2022-12-07T00:16:00;7.40;;;6.70;;
9176;SDS011;4623;54.310;10.112;2022-12-07T00:18:27;7.77;;;7.07;;
9176;SDS011;4623;54.310;10.112;2022-12-07T00:20:52;8.03;;;7.23;;
9176;SDS011;4623;54.310;10.112;2022-12-07T00:23:18;7.30;;;6.60;;
9176;SDS011;4623;54.310;10.112;2022-12-07T00:25:43;7.90;;;7.20;;
9176;SDS011;4623;54.310;10.112;2022-12-07T00:28:08;8.83;;;6.80;;
9176;SDS011;4623;54.310;10.112;2022-12-07T00:30:35;7.90;;;7.10;;
9176;SDS011;4623;54.310;10.112;2022-12-07T00:33:01;7.97;;;7.27;;
9176;SDS011;4623;54.310;10.112;2022-12-07T00:35:26;7.73;;;7.00;;
9176;SDS011;4623;54.310;10.112;2022-12-07T00:37:52;8.00;;;7.10;;
9176;SDS011;4623;54.310;10.112;2022-12-07T00:40:17;8.90;;;7.23;;
9176;SDS011;4623;54.310;10.112;2022-12-07T00:42:42;8.50;;;7.70;;
9176;SDS011;4623;54.310;10.112;2022-12-07T00:45:08;9.03;;;8.13;;
9176;SDS011;4623;54.310;10.112;2022-12-07T00:47:34;7.73;;;7.00;;
9176;SDS011;4623;54.310;10.112;2022-12-07T00:49:59;9.23;;;8.23;;
9176;SDS011;4623;54.310;10.112;2022-12-07T00:52:25;8.17;;;7.40;;
9176;SDS011;4623;54.310;10.112;2022-12-07T00:54:50;8.23;;;7.43;;
9176;SDS011;4623;54.310;10.112;2022-12-07T00:57:16;8.57;;;7.67;;
9176;SDS011;4623;54.310;10.112;2022-12-07T00:59:41;8.23;;;7.03;;
9176;SDS011;4623;54.310;10.112;2022-12-07T01:02:07;9.00;;;7.90;;
9176;SDS011;4623;54.310;10.112;2022-12-07T01:04:33;7.50;;;6.80;;
9176;SDS011;4623;54.310;10.112;2022-12-07T01:06:59;10.50;;;8.20;;
9176;SDS011;4623;54.310;10.112;2022-12-07T01:09:24;7.90;;;7.17;;
9176;SDS011;4623;54.310;10.112;2022-12-07T01:11:50;8.43;;;7.63;;
9176;SDS011;4623;54.310;10.112;2022-12-07T01:14:15;6.97;;;6.37;;
9176;SDS011;4623;54.310;10.112;2022-12-07T01:16:41;8.20;;;7.40;;
9176;SDS011;4623;54.310;10.112;2022-12-07T01:19:06;7.93;;;7.13;;
9176;SDS011;4623;54.310;10.112;2022-12-07T01:21:32;7.33;;;6.63;;
9176;SDS011;4623;54.310;10.112;2022-12-07T01:24:01;7.67;;;6.97;;
9176;SDS011;4623;54.310;10.112;2022-12-07T01:26:27;7.17;;;6.47;;
9176;SDS011;4623;54.310;10.112;2022-12-07T01:28:53;7.07;;;6.30;;
9176;SDS011;4623;54.310;10.112;2022-12-07T01:31:20;6.57;;;5.90;;
9176;SDS011;4623;54.310;10.112;2022-12-07T01:33:50;6.10;;;5.50;;
9176;SDS011;4623;54.310;10.112;2022-12-07T01:36:22;7.23;;;5.37;;
9176;SDS011;4623;54.310;10.112;2022-12-07T01:38:49;4.80;;;4.30;;
9176;SDS011;4623;54.310;10.112;2022-12-07T01:41:17;18.13;;;4.97;;
9176;SDS011;4623;54.310;10.112;2022-12-07T01:46:44;6.20;;;4.87;;
9176;SDS011;4623;54.310;10.112;2022-12-07T01:52:22;5.20;;;4.70;;
9176;SDS011;4623;54.310;10.112;2022-12-07T01:54:56;5.00;;;4.50;;
9176;SDS011;4623;54.310;10.112;2022-12-07T01:57:25;5.13;;;4.50;;
9176;SDS011;4623;54.310;10.112;2022-12-07T01:59:51;4.60;;;4.20;;
9176;SDS011;4623;54.310;10.112;2022-12-07T02:02:19;4.80;;;4.40;;
9176;SDS011;4623;54.310;10.112;2022-12-07T02:04:47;5.17;;;4.63;;
9176;SDS011;4623;54.310;10.112;2022-12-07T02:07:13;4.70;;;4.30;;
9176;SDS011;4623;54.310;10.112;2022-12-07T02:09:40;5.47;;;4.97;;
9176;SDS011;4623;54.310;10.112;2022-12-07T02:12:05;6.67;;;6.07;;
9176;SDS011;4623;54.310;10.112;2022-12-07T02:14:31;7.30;;;5.33;;
9176;SDS011;4623;54.310;10.112;2022-12-07T02:17:03;6.53;;;5.93;;
9176;SDS011;4623;54.310;10.112;2022-12-07T02:19:49;6.83;;;6.13;;
9176;SDS011;4623;54.310;10.112;2022-12-07T02:25:22;8.50;;;7.70;;
9176;SDS011;4623;54.310;10.112;2022-12-07T02:28:19;10.30;;;8.83;;
9176;SDS011;4623;54.310;10.112;2022-12-07T02:30:58;9.03;;;8.13;;
9176;SDS011;4623;54.310;10.112;2022-12-07T02:33:40;11.27;;;9.03;;
9176;SDS011;4623;54.310;10.112;2022-12-07T02:36:11;9.10;;;8.20;;
9176;SDS011;4623;54.310;10.112;2022-12-07T02:38:48;9.63;;;8.73;;
9176;SDS011;4623;54.310;10.112;2022-12-07T02:44:20;9.03;;;8.17;;
9176;SDS011;4623;54.310;10.112;2022-12-07T02:46:53;9.13;;;8.23;;
9176;SDS011;4623;54.310;10.112;2022-12-07T02:49:23;9.87;;;8.97;;
9176;SDS011;4623;54.310;10.112;2022-12-07T02:51:50;9.27;;;8.30;;
9176;SDS011;4623;54.310;10.112;2022-12-07T02:54:18;8.07;;;7.27;;
9176;SDS011;4623;54.310;10.112;2022-12-07T03:07:25;9.33;;;8.37;;
9176;SDS011;4623;54.310;10.112;2022-12-07T03:10:08;8.67;;;7.87;;
9176;SDS011;4623;54.310;10.112;2022-12-07T03:12:57;8.60;;;7.07;;
9176;SDS011;4623;54.310;10.112;2022-12-07T03:15:39;8.00;;;7.20;;
9176;SDS011;4623;54.310;10.112;2022-12-07T03:18:16;8.67;;;7.80;;
9176;SDS011;4623;54.310;10.112;2022-12-07T03:20:43;9.57;;;8.63;;
9176;SDS011;4623;54.310;10.112;2022-12-07T03:23:11;8.63;;;7.50;;
9176;SDS011;4623;54.310;10.112;2022-12-07T03:25:47;7.93;;;7.13;;
9176;SDS011;4623;54.310;10.112;2022-12-07T03:28:18;8.27;;;7.47;;
9176;SDS011;4623;54.310;10.112;2022-12-07T03:30:47;9.10;;;8.20;;
9176;SDS011;4623;54.310;10.112;2022-12-07T03:33:19;8.33;;;7.53;;
9176;SDS011;4623;54.310;10.112;2022-12-07T03:35:51;8.57;;;7.53;;
9176;SDS011;4623;54.310;10.112;2022-12-07T03:38:27;7.87;;;7.17;;
9176;SDS011;4623;54.310;10.112;2022-12-07T03:41:01;7.90;;;7.10;;
9176;SDS011;4623;54.310;10.112;2022-12-07T03:43:36;8.37;;;7.57;;
9176;SDS011;4623;54.310;10.112;2022-12-07T03:48:59;8.40;;;7.60;;
9176;SDS011;4623;54.310;10.112;2022-12-07T03:51:50;8.87;;;7.97;;
9176;SDS011;4623;54.310;10.112;2022-12-07T03:54:29;8.17;;;7.27;;
9176;SDS011;4623;54.310;10.112;2022-12-07T03:56:59;7.07;;;6.47;;
9176;SDS011;4623;54.310;10.112;2022-12-07T03:59:26;7.80;;;7.10;;
9176;SDS011;4623;54.310;10.112;2022-12-07T04:01:57;8.07;;;7.03;;
9176;SDS011;4623;54.310;10.112;2022-12-07T04:04:28;7.27;;;6.63;;
9176;SDS011;4623;54.310;10.112;2022-12-07T04:06:53;7.87;;;6.93;;
9176;SDS011;4623;54.310;10.112;2022-12-07T04:09:19;8.70;;;7.80;;
9176;SDS011;4623;54.310;10.112;2022-12-07T04:11:45;7.90;;;7.10;;
9176;SDS011;4623;54.310;10.112;2022-12-07T04:14:11;8.83;;;8.03;;
9176;SDS011;4623;54.310;10.112;2022-12-07T04:19:18;8.70;;;7.80;;
9176;SDS011;4623;54.310;10.112;2022-12-07T04:21:45;9.47;;;8.43;;
9176;SDS011;4623;54.310;10.112;2022-12-07T04:24:12;8.80;;;7.90;;
9176;SDS011;4623;54.310;10.112;2022-12-07T04:26:39;11.93;;;9.23;;
9176;SDS011;4623;54.310;10.112;2022-12-07T04:29:05;9.00;;;8.13;;
9176;SDS011;4623;54.310;10.112;2022-12-07T04:31:31;11.77;;;8.37;;
9176;SDS011;4623;54.310;10.112;2022-12-07T04:36:55;10.00;;;9.10;;
9176;SDS011;4623;54.310;10.112;2022-12-07T04:39:21;9.10;;;8.20;;
9176;SDS011;4623;54.310;10.112;2022-12-07T04:41:52;9.60;;;8.70;;
9176;SDS011;4623;54.310;10.112;2022-12-07T04:44:19;9.00;;;8.07;;
9176;SDS011;4623;54.310;10.112;2022-12-07T04:46:46;8.83;;;7.83;;
9176;SDS011;4623;54.310;10.112;2022-12-07T04:49:12;10.17;;;9.13;;
9176;SDS011;4623;54.310;10.112;2022-12-07T04:51:38;9.53;;;8.47;;
9176;SDS011;4623;54.310;10.112;2022-12-07T04:54:04;9.60;;;8.70;;
9176;SDS011;4623;54.310;10.112;2022-12-07T04:56:30;9.17;;;8.27;;
9176;SDS011;4623;54.310;10.112;2022-12-07T04:58:56;10.23;;;9.00;;
9176;SDS011;4623;54.310;10.112;2022-12-07T05:01:22;8.53;;;7.40;;
9176;SDS011;4623;54.310;10.112;2022-12-07T05:03:48;9.17;;;8.20;;
9176;SDS011;4623;54.310;10.112;2022-12-07T05:06:14;11.07;;;9.20;;
9176;SDS011;4623;54.310;10.112;2022-12-07T05:08:40;10.47;;;8.90;;
9176;SDS011;4623;54.310;10.112;2022-12-07T05:11:07;10.33;;;9.23;;
9176;SDS011;4623;54.310;10.112;2022-12-07T05:13:33;10.83;;;9.73;;
9176;SDS011;4623;54.310;10.112;2022-12-07T05:15:59;10.83;;;9.70;;
9176;SDS011;4623;54.310;10.112;2022-12-07T05:18:25;11.90;;;8.40;;
9176;SDS011;4623;54.310;10.112;2022-12-07T05:20:51;10.20;;;8.80;;
9176;SDS011;4623;54.310;10.112;2022-12-07T05:23:17;11.13;;;8.37;;
9176;SDS011;4623;54.310;10.112;2022-12-07T05:25:43;9.53;;;8.53;;
9176;SDS011;4623;54.310;10.112;2022-12-07T05:28:08;9.23;;;8.33;;
9176;SDS011;4623;54.310;10.112;2022-12-07T05:30:34;8.37;;;7.53;;
9176;SDS011;4623;54.310;10.112;2022-12-07T05:32:59;7.97;;;7.13;;
9176;SDS011;4623;54.310;10.112;2022-12-07T05:35:25;9.03;;;8.13;;
9176;SDS011;4623;54.310;10.112;2022-12-07T05:37:50;11.40;;;8.03;;
9176;SDS011;4623;54.310;10.112;2022-12-07T05:40:16;8.67;;;7.83;;
9176;SDS011;4623;54.310;10.112;2022-12-07T05:42:43;8.37;;;7.53;;
9176;SDS011;4623;54.310;10.112;2022-12-07T05:45:09;9.03;;;8.13;;
9176;SDS011;4623;54.310;10.112;2022-12-07T05:47:35;9.40;;;8.50;;
9176;SDS011;4623;54.310;10.112;2022-12-07T05:50:01;8.03;;;7.20;;
9176;SDS011;4623;54.310;10.112;2022-12-07T05:52:26;8.73;;;7.77;;
9176;SDS011;4623;54.310;10.112;2022-12-07T05:54:52;7.67;;;6.80;;
9176;SDS011;4623;54.310;10.112;2022-12-07T05:57:18;9.23;;;8.33;;
9176;SDS011;4623;54.310;10.112;2022-12-07T05:59:43;7.43;;;6.73;;
9176;SDS011;4623;54.310;10.112;2022-12-07T06:02:13;8.70;;;7.80;;
9176;SDS011;4623;54.310;10.112;2022-12-07T06:04:40;7.93;;;7.13;;
9176;SDS011;4623;54.310;10.112;2022-12-07T06:07:07;8.00;;;7.20;;
9176;SDS011;4623;54.310;10.112;2022-12-07T06:09:33;8.27;;;7.43;;
9176;SDS011;4623;54.310;10.112;2022-12-07T06:11:59;8.40;;;7.60;;
9176;SDS011;4623;54.310;10.112;2022-12-07T06:14:44;11.40;;;7.27;;
9176;SDS011;4623;54.310;10.112;2022-12-07T06:17:10;7.63;;;6.93;;
9176;SDS011;4623;54.310;10.112;2022-12-07T06:19:37;8.27;;;7.47;;
9176;SDS011;4623;54.310;10.112;2022-12-07T06:22:02;8.87;;;7.13;;
9176;SDS011;4623;54.310;10.112;2022-12-07T06:24:29;7.70;;;6.90;;
9176;SDS011;4623;54.310;10.112;2022-12-07T06:26:55;7.47;;;6.77;;
9176;SDS011;4623;54.310;10.112;2022-12-07T06:29:21;8.23;;;7.00;;
9176;SDS011;4623;54.310;10.112;2022-12-07T06:31:47;7.10;;;6.40;;
9176;SDS011;4623;54.310;10.112;2022-12-07T06:34:13;7.17;;;6.47;;
9176;SDS011;4623;54.310;10.112;2022-12-07T06:36:43;8.10;;;6.73;;
9176;SDS011;4623;54.310;10.112;2022-12-07T06:39:09;7.20;;;6.50;;
9176;SDS011;4623;54.310;10.112;2022-12-07T06:41:36;7.60;;;6.90;;
9176;SDS011;4623;54.310;10.112;2022-12-07T06:44:02;6.90;;;6.23;;
9176;SDS011;4623;54.310;10.112;2022-12-07T06:46:29;7.80;;;7.10;;
9176;SDS011;4623;54.310;10.112;2022-12-07T06:48:54;7.23;;;6.53;;
9176;SDS011;4623;54.310;10.112;2022-12-07T06:51:20;7.50;;;6.60;;
9176;SDS011;4623;54.310;10.112;2022-12-07T06:53:45;6.97;;;6.27;;
9176;SDS011;4623;54.310;10.112;2022-12-07T06:56:11;7.13;;;6.47;;
9176;SDS011;4623;54.310;10.112;2022-12-07T06:58:36;7.03;;;6.23;;
9176;SDS011;4623;54.310;10.112;2022-12-07T07:01:02;7.10;;;6.40;;
9176;SDS011;4623;54.310;10.112;2022-12-07T07:03:28;7.27;;;6.23;;
9176;SDS011;4623;54.310;10.112;2022-12-07T07:05:53;6.17;;;5.57;;
9176;SDS011;4623;54.310;10.112;2022-12-07T07:08:19;6.33;;;5.53;;
9176;SDS011;4623;54.310;10.112;2022-12-07T07:10:44;6.67;;;5.93;;
9176;SDS011;4623;54.310;10.112;2022-12-07T07:13:10;8.30;;;5.70;;
9176;SDS011;4623;54.310;10.112;2022-12-07T07:15:37;8.47;;;6.23;;
9176;SDS011;4623;54.310;10.112;2022-12-07T07:18:03;6.70;;;5.70;;
9176;SDS011;4623;54.310;10.112;2022-12-07T07:20:28;6.43;;;5.60;;
9176;SDS011;4623;54.310;10.112;2022-12-07T07:22:54;6.63;;;5.93;;
9176;SDS011;4623;54.310;10.112;2022-12-07T07:25:20;6.57;;;5.23;;
9176;SDS011;4623;54.310;10.112;2022-12-07T07:27:46;6.20;;;5.23;;
9176;SDS011;4623;54.310;10.112;2022-12-07T07:30:11;6.17;;;5.17;;
9176;SDS011;4623;54.310;10.112;2022-12-07T07:32:37;5.57;;;4.73;;
9176;SDS011;4623;54.310;10.112;2022-12-07T07:35:04;7.03;;;5.07;;
9176;SDS011;4623;54.310;10.112;2022-12-07T07:37:29;7.57;;;5.57;;
9176;SDS011;4623;54.310;10.112;2022-12-07T07:39:55;6.27;;;5.63;;
9176;SDS011;4623;54.310;10.112;2022-12-07T07:42:21;5.83;;;5.33;;
9176;SDS011;4623;54.310;10.112;2022-12-07T07:44:47;6.47;;;5.87;;
9176;SDS011;4623;54.310;10.112;2022-12-07T07:47:12;5.40;;;4.90;;
9176;SDS011;4623;54.310;10.112;2022-12-07T07:49:38;5.30;;;4.80;;
9176;SDS011;4623;54.310;10.112;2022-12-07T07:52:04;5.33;;;4.80;;
9176;SDS011;4623;54.310;10.112;2022-12-07T07:54:30;6.00;;;5.27;;
9176;SDS011;4623;54.310;10.112;2022-12-07T07:56:56;6.27;;;4.90;;
9176;SDS011;4623;54.310;10.112;2022-12-07T07:59:22;6.60;;;5.83;;
9176;SDS011;4623;54.310;10.112;2022-12-07T08:01:47;8.37;;;5.57;;
9176;SDS011;4623;54.310;10.112;2022-12-07T08:04:13;5.93;;;5.03;;
9176;SDS011;4623;54.310;10.112;2022-12-07T08:06:38;7.53;;;5.27;;
9176;SDS011;4623;54.310;10.112;2022-12-07T08:09:04;6.27;;;5.03;;
9176;SDS011;4623;54.310;10.112;2022-12-07T08:11:30;9.30;;;5.30;;
9176;SDS011;4623;54.310;10.112;2022-12-07T08:13:56;5.87;;;4.77;;
9176;SDS011;4623;54.310;10.112;2022-12-07T08:16:21;7.20;;;5.20;;
9176;SDS011;4623;54.310;10.112;2022-12-07T08:18:47;4.53;;;4.07;;
9176;SDS011;4623;54.310;10.112;2022-12-07T08:21:13;5.00;;;4.03;;
9176;SDS011;4623;54.310;10.112;2022-12-07T08:23:39;4.33;;;3.87;;
9176;SDS011;4623;54.310;10.112;2022-12-07T08:26:06;9.07;;;4.97;;
9176;SDS011;4623;54.310;10.112;2022-12-07T08:28:33;7.23;;;4.53;;
9176;SDS011;4623;54.310;10.112;2022-12-07T08:31:00;8.67;;;3.90;;
9176;SDS011;4623;54.310;10.112;2022-12-07T08:33:26;5.50;;;3.90;;
9176;SDS011;4623;54.310;10.112;2022-12-07T08:35:52;4.57;;;4.17;;
9176;SDS011;4623;54.310;10.112;2022-12-07T08:38:18;8.03;;;4.40;;
9176;SDS011;4623;54.310;10.112;2022-12-07T08:40:43;5.30;;;4.03;;
9176;SDS011;4623;54.310;10.112;2022-12-07T08:43:08;5.47;;;4.23;;
9176;SDS011;4623;54.310;10.112;2022-12-07T08:45:34;7.03;;;4.43;;
9176;SDS011;4623;54.310;10.112;2022-12-07T08:58:07;7.73;;;5.00;;
9176;SDS011;4623;54.310;10.112;2022-12-07T09:10:28;4.33;;;3.57;;
9176;SDS011;4623;54.310;10.112;2022-12-07T09:36:28;4.10;;;2.90;;
9176;SDS011;4623;54.310;10.112;2022-12-07T09:38:54;4.20;;;2.83;;
9176;SDS011;4623;54.310;10.112;2022-12-07T09:41:20;3.70;;;2.77;;
9176;SDS011;4623;54.310;10.112;2022-12-07T09:43:47;4.47;;;2.70;;
9176;SDS011;4623;54.310;10.112;2022-12-07T09:46:14;5.67;;;2.67;;
9176;SDS011;4623;54.310;10.112;2022-12-07T09:48:42;3.73;;;2.87;;
9176;SDS011;4623;54.310;10.112;2022-12-07T09:51:21;2.70;;;2.40;;
9176;SDS011;4623;54.310;10.112;2022-12-07T09:53:48;4.27;;;2.50;;
9176;SDS011;4623;54.310;10.112;2022-12-07T09:56:16;2.80;;;2.43;;
9176;SDS011;4623;54.310;10.112;2022-12-07T09:58:44;2.80;;;2.60;;
9176;SDS011;4623;54.310;10.112;2022-12-07T10:07:07;2.63;;;2.20;;
9176;SDS011;4623;54.310;10.112;2022-12-07T10:09:33;4.40;;;2.50;;
9176;SDS011;4623;54.310;10.112;2022-12-07T10:12:10;6.83;;;2.70;;
9176;SDS011;4623;54.310;10.112;2022-12-07T10:14:38;3.00;;;2.13;;
9176;SDS011;4623;54.310;10.112;2022-12-07T10:17:25;3.23;;;2.83;;
9176;SDS011;4623;54.310;10.112;2022-12-07T10:22:36;2.70;;;2.47;;
9176;SDS011;4623;54.310;10.112;2022-12-07T10:25:16;5.50;;;2.60;;
9176;SDS011;4623;54.310;10.112;2022-12-07T10:27:43;7.63;;;3.03;;
9176;SDS011;4623;54.310;10.112;2022-12-07T10:30:21;2.77;;;2.57;;
9176;SDS011;4623;54.310;10.112;2022-12-07T10:32:47;4.63;;;2.90;;
9176;SDS011;4623;54.310;10.112;2022-12-07T10:35:20;3.47;;;2.83;;
9176;SDS011;4623;54.310;10.112;2022-12-07T10:37:51;6.63;;;2.70;;
9176;SDS011;4623;54.310;10.112;2022-12-07T10:40:26;5.30;;;2.67;;
9176;SDS011;4623;54.310;10.112;2022-12-07T10:43:02;4.47;;;2.90;;
9176;SDS011;4623;54.310;10.112;2022-12-07T10:45:30;4.30;;;3.17;;
9176;SDS011;4623;54.310;10.112;2022-12-07T10:48:02;4.60;;;2.87;;
9176;SDS011;4623;54.310;10.112;2022-12-07T10:59:26;4.27;;;2.63;;
9176;SDS011;4623;54.310;10.112;2022-12-07T11:11:00;2.90;;;2.27;;
9176;SDS011;4623;54.310;10.112;2022-12-07T11:13:37;2.60;;;2.17;;
9176;SDS011;4623;54.310;10.112;2022-12-07T11:16:41;3.17;;;2.37;;
9176;SDS011;4623;54.310;10.112;2022-12-07T11:19:20;6.83;;;2.63;;
9176;SDS011;4623;54.310;10.112;2022-12-07T11:24:26;4.03;;;2.70;;
9176;SDS011;4623;54.310;10.112;2022-12-07T11:29:40;4.17;;;2.77;;
9176;SDS011;4623;54.310;10.112;2022-12-07T11:32:26;3.07;;;2.13;;
9176;SDS011;4623;54.310;10.112;2022-12-07T11:35:22;4.13;;;2.23;;
9176;SDS011;4623;54.310;10.112;2022-12-07T11:38:10;3.00;;;2.70;;
9176;SDS011;4623;54.310;10.112;2022-12-07T11:40:40;4.87;;;2.67;;
9176;SDS011;4623;54.310;10.112;2022-12-07T11:45:43;4.47;;;2.40;;
9176;SDS011;4623;54.310;10.112;2022-12-07T11:48:25;3.97;;;2.47;;
9176;SDS011;4623;54.310;10.112;2022-12-07T11:50:55;2.53;;;2.20;;
9176;SDS011;4623;54.310;10.112;2022-12-07T11:53:28;4.10;;;2.40;;
9176;SDS011;4623;54.310;10.112;2022-12-07T11:56:08;3.97;;;2.23;;
9176;SDS011;4623;54.310;10.112;2022-12-07T11:58:44;3.23;;;2.47;;
9176;SDS011;4623;54.310;10.112;2022-12-07T12:06:39;5.37;;;3.17;;
9176;SDS011;4623;54.310;10.112;2022-12-07T12:09:11;4.30;;;2.40;;
9176;SDS011;4623;54.310;10.112;2022-12-07T12:12:06;6.27;;;2.40;;
9176;SDS011;4623;54.310;10.112;2022-12-07T12:14:52;3.30;;;2.73;;
9176;SDS011;4623;54.310;10.112;2022-12-07T12:17:44;2.70;;;2.10;;
9176;SDS011;4623;54.310;10.112;2022-12-07T12:20:35;3.63;;;2.10;;
9176;SDS011;4623;54.310;10.112;2022-12-07T12:23:17;7.93;;;2.53;;
9176;SDS011;4623;54.310;10.112;2022-12-07T12:28:24;3.37;;;2.00;;
9176;SDS011;4623;54.310;10.112;2022-12-07T12:31:15;2.30;;;2.10;;
9176;SDS011;4623;54.310;10.112;2022-12-07T12:33:57;3.10;;;2.10;;
9176;SDS011;4623;54.310;10.112;2022-12-07T12:36:26;2.73;;;2.00;;
9176;SDS011;4623;54.310;10.112;2022-12-07T12:47:02;2.30;;;1.97;;
9176;SDS011;4623;54.310;10.112;2022-12-07T12:53:26;2.43;;;2.23;;
9176;SDS011;4623;54.310;10.112;2022-12-07T13:00:49;4.43;;;2.50;;
9176;SDS011;4623;54.310;10.112;2022-12-07T13:03:52;1.90;;;1.73;;
9176;SDS011;4623;54.310;10.112;2022-12-07T13:08:51;4.30;;;2.17;;
9176;SDS011;4623;54.310;10.112;2022-12-07T13:11:20;4.43;;;2.03;;
9176;SDS011;4623;54.310;10.112;2022-12-07T13:14:35;2.67;;;2.30;;
9176;SDS011;4623;54.310;10.112;2022-12-07T13:16:58;4.57;;;2.20;;
9176;SDS011;4623;54.310;10.112;2022-12-07T13:24:59;3.47;;;3.17;;
9176;SDS011;4623;54.310;10.112;2022-12-07T13:27:32;5.37;;;2.97;;
9176;SDS011;4623;54.310;10.112;2022-12-07T13:29:59;2.87;;;2.30;;
9176;SDS011;4623;54.310;10.112;2022-12-07T13:32:26;4.43;;;2.10;;
9176;SDS011;4623;54.310;10.112;2022-12-07T13:34:53;3.20;;;2.80;;
9176;SDS011;4623;54.310;10.112;2022-12-07T13:39:56;4.07;;;3.13;;
9176;SDS011;4623;54.310;10.112;2022-12-07T13:42:30;3.10;;;2.80;;
9176;SDS011;4623;54.310;10.112;2022-12-07T13:44:59;2.47;;;2.27;;
9176;SDS011;4623;54.310;10.112;2022-12-07T13:47:49;2.00;;;1.90;;
9176;SDS011;4623;54.310;10.112;2022-12-07T13:50:30;2.10;;;2.00;;
9176;SDS011;4623;54.310;10.112;2022-12-07T13:52:57;2.93;;;2.20;;
9176;SDS011;4623;54.310;10.112;2022-12-07T13:55:23;2.87;;;2.60;;
9176;SDS011;4623;54.310;10.112;2022-12-07T13:57:50;3.37;;;2.97;;
9176;SDS011;4623;54.310;10.112;2022-12-07T14:00:21;2.77;;;2.47;;
9176;SDS011;4623;54.310;10.112;2022-12-07T14:08:02;2.90;;;2.17;;
9176;SDS011;4623;54.310;10.112;2022-12-07T14:10:30;3.77;;;3.00;;
9176;SDS011;4623;54.310;10.112;2022-12-07T14:13:00;2.70;;;2.50;;
9176;SDS011;4623;54.310;10.112;2022-12-07T14:15:28;3.27;;;2.40;;
9176;SDS011;4623;54.310;10.112;2022-12-07T14:17:56;2.73;;;2.30;;
9176;SDS011;4623;54.310;10.112;2022-12-07T14:20:33;2.97;;;2.70;;
9176;SDS011;4623;54.310;10.112;2022-12-07T14:22:59;2.30;;;2.10;;
9176;SDS011;4623;54.310;10.112;2022-12-07T14:25:25;3.73;;;2.77;;
9176;SDS011;4623;54.310;10.112;2022-12-07T14:27:53;2.77;;;2.57;;
9176;SDS011;4623;54.310;10.112;2022-12-07T14:30:27;3.63;;;2.37;;
9176;SDS011;4623;54.310;10.112;2022-12-07T14:32:59;2.50;;;2.30;;
9176;SDS011;4623;54.310;10.112;2022-12-07T14:35:26;3.63;;;2.40;;
9176;SDS011;4623;54.310;10.112;2022-12-07T14:37:52;3.27;;;2.57;;
9176;SDS011;4623;54.310;10.112;2022-12-07T14:40:20;4.40;;;2.80;;
9176;SDS011;4623;54.310;10.112;2022-12-07T14:42:50;2.93;;;2.43;;
9176;SDS011;4623;54.310;10.112;2022-12-07T14:45:19;2.37;;;2.17;;
9176;SDS011;4623;54.310;10.112;2022-12-07T14:47:46;2.13;;;2.03;;
9176;SDS011;4623;54.310;10.112;2022-12-07T14:50:13;2.93;;;2.70;;
9176;SDS011;4623;54.310;10.112;2022-12-07T14:52:40;5.60;;;2.70;;
9176;SDS011;4623;54.310;10.112;2022-12-07T14:55:16;3.00;;;2.53;;
9176;SDS011;4623;54.310;10.112;2022-12-07T14:57:55;3.77;;;2.60;;
9176;SDS011;4623;54.310;10.112;2022-12-07T15:00:22;5.03;;;2.83;;
9176;SDS011;4623;54.310;10.112;2022-12-07T15:02:49;4.10;;;2.60;;
9176;SDS011;4623;54.310;10.112;2022-12-07T15:05:16;4.43;;;2.90;;
9176;SDS011;4623;54.310;10.112;2022-12-07T15:07:41;3.37;;;3.07;;
9176;SDS011;4623;54.310;10.112;2022-12-07T15:10:27;3.97;;;3.67;;
9176;SDS011;4623;54.310;10.112;2022-12-07T15:12:56;3.77;;;3.00;;
9176;SDS011;4623;54.310;10.112;2022-12-07T15:15:45;3.50;;;3.20;;
9176;SDS011;4623;54.310;10.112;2022-12-07T15:18:11;6.20;;;4.07;;
9176;SDS011;4623;54.310;10.112;2022-12-07T15:20:37;4.83;;;3.20;;
9176;SDS011;4623;54.310;10.112;2022-12-07T15:23:03;3.80;;;3.10;;
9176;SDS011;4623;54.310;10.112;2022-12-07T15:25:29;3.87;;;3.47;;
9176;SDS011;4623;54.310;10.112;2022-12-07T15:27:54;4.90;;;3.10;;
9176;SDS011;4623;54.310;10.112;2022-12-07T15:30:20;4.13;;;3.47;;
9176;SDS011;4623;54.310;10.112;2022-12-07T15:32:49;3.80;;;3.20;;
9176;SDS011;4623;54.310;10.112;2022-12-07T15:35:15;3.20;;;2.90;;
9176;SDS011;4623;54.310;10.112;2022-12-07T15:37:40;3.57;;;3.27;;
9176;SDS011;4623;54.310;10.112;2022-12-07T15:40:06;3.20;;;2.90;;
9176;SDS011;4623;54.310;10.112;2022-12-07T15:42:32;3.17;;;2.97;;
9176;SDS011;4623;54.310;10.112;2022-12-07T15:44:57;3.33;;;3.07;;
9176;SDS011;4623;54.310;10.112;2022-12-07T15:47:33;5.23;;;2.73;;
9176;SDS011;4623;54.310;10.112;2022-12-07T15:50:00;3.13;;;2.83;;
9176;SDS011;4623;54.310;10.112;2022-12-07T15:52:27;3.43;;;3.13;;
9176;SDS011;4623;54.310;10.112;2022-12-07T15:54:53;3.57;;;3.03;;
9176;SDS011;4623;54.310;10.112;2022-12-07T15:57:18;4.40;;;3.00;;
9176;SDS011;4623;54.310;10.112;2022-12-07T15:59:44;3.87;;;3.53;;
9176;SDS011;4623;54.310;10.112;2022-12-07T16:02:10;4.67;;;3.47;;
9176;SDS011;4623;54.310;10.112;2022-12-07T16:04:35;3.77;;;3.47;;
9176;SDS011;4623;54.310;10.112;2022-12-07T16:07:01;4.17;;;2.93;;
9176;SDS011;4623;54.310;10.112;2022-12-07T16:09:27;4.13;;;3.27;;
9176;SDS011;4623;54.310;10.112;2022-12-07T16:11:53;3.03;;;2.83;;
9176;SDS011;4623;54.310;10.112;2022-12-07T16:14:19;3.43;;;2.80;;
9176;SDS011;4623;54.310;10.112;2022-12-07T16:16:45;4.00;;;3.57;;
9176;SDS011;4623;54.310;10.112;2022-12-07T16:19:10;3.30;;;3.00;;
9176;SDS011;4623;54.310;10.112;2022-12-07T16:21:36;4.03;;;3.50;;
9176;SDS011;4623;54.310;10.112;2022-12-07T16:24:02;5.13;;;3.80;;
9176;SDS011;4623;54.310;10.112;2022-12-07T16:26:28;5.20;;;3.80;;
9176;SDS011;4623;54.310;10.112;2022-12-07T16:28:54;5.50;;;3.13;;
9176;SDS011;4623;54.310;10.112;2022-12-07T16:31:21;5.73;;;3.50;;
9176;SDS011;4623;54.310;10.112;2022-12-07T16:33:49;3.93;;;3.53;;
9176;SDS011;4623;54.310;10.112;2022-12-07T16:36:17;3.80;;;3.27;;
9176;SDS011;4623;54.310;10.112;2022-12-07T16:38:43;4.63;;;3.43;;
9176;SDS011;4623;54.310;10.112;2022-12-07T16:41:09;4.67;;;3.37;;
9176;SDS011;4623;54.310;10.112;2022-12-07T16:43:36;4.20;;;3.47;;
9176;SDS011;4623;54.310;10.112;2022-12-07T16:46:02;4.07;;;3.10;;
9176;SDS011;4623;54.310;10.112;2022-12-07T16:48:28;3.03;;;2.83;;
9176;SDS011;4623;54.310;10.112;2022-12-07T16:50:54;4.50;;;3.57;;
9176;SDS011;4623;54.310;10.112;2022-12-07T16:53:20;4.63;;;4.13;;
9176;SDS011;4623;54.310;10.112;2022-12-07T16:55:48;4.87;;;4.47;;
9176;SDS011;4623;54.310;10.112;2022-12-07T17:08:15;5.47;;;4.37;;
9176;SDS011;4623;54.310;10.112;2022-12-07T17:10:42;3.60;;;3.30;;
9176;SDS011;4623;54.310;10.112;2022-12-07T17:13:09;3.83;;;3.43;;
9176;SDS011;4623;54.310;10.112;2022-12-07T17:15:56;3.70;;;3.40;;
9176;SDS011;4623;54.310;10.112;2022-12-07T17:18:31;3.70;;;3.03;;
9176;SDS011;4623;54.310;10.112;2022-12-07T17:21:05;3.60;;;3.30;;
9176;SDS011;4623;54.310;10.112;2022-12-07T17:23:33;4.47;;;3.40;;
9176;SDS011;4623;54.310;10.112;2022-12-07T17:26:07;4.23;;;3.30;;
9176;SDS011;4623;54.310;10.112;2022-12-07T17:28:34;3.47;;;3.17;;
9176;SDS011;4623;54.310;10.112;2022-12-07T17:31:00;3.27;;;2.97;;
9176;SDS011;4623;54.310;10.112;2022-12-07T17:33:26;3.93;;;3.47;;
9176;SDS011;4623;54.310;10.112;2022-12-07T17:35:51;4.37;;;3.93;;
9176;SDS011;4623;54.310;10.112;2022-12-07T17:38:17;5.47;;;3.50;;
9176;SDS011;4623;54.310;10.112;2022-12-07T17:40:42;4.40;;;3.60;;
9176;SDS011;4623;54.310;10.112;2022-12-07T17:43:08;5.37;;;3.27;;
9176;SDS011;4623;54.310;10.112;2022-12-07T17:45:33;4.37;;;3.60;;
9176;SDS011;4623;54.310;10.112;2022-12-07T17:48:00;4.13;;;3.77;;
9176;SDS011;4623;54.310;10.112;2022-12-07T17:50:26;5.93;;;4.67;;
9176;SDS011;4623;54.310;10.112;2022-12-07T17:53:10;6.10;;;5.43;;
9176;SDS011;4623;54.310;10.112;2022-12-07T17:55:36;6.10;;;5.33;;